Time;durP1;ratioP1;P1;durP2;ratioP2;P2;SDS_P1;SDS_P2;PMS_P1;PMS_P2;Temp;Humidity;BMP_temperature;BMP_pressure;BME280_temperature;BME280_humidity;BME280_pressure;Samples;Min_cycle;Max_cycle;Signal;HPM_P1;HPM_P2
2021/01/03 00:01:29;;;;;;;;;;;3.70;99.90;;;;;;10405547;28;20016;-67
2021/01/03 00:06:30;;;;;;;;;;;3.60;99.90;;;;;;10406930;28;19968;-67
2021/01/03 00:11:32;;;;;;;;;;;3.70;99.90;;;;;;10407337;28;20206;-67
2021/01/03 00:16:33;;;;;;;;;;;3.70;99.90;;;;;;10407514;28;20012;-67
2021/01/03 00:21:35;;;;;;;;;;;3.70;99.90;;;;;;10408010;28;20020;-67
2021/01/03 00:26:36;;;;;;;;;;;3.80;99.90;;;;;;10406844;28;19931;-67
2021/01/03 00:31:41;;;;;;;;;;;3.80;99.90;;;;;;10406351;28;19925;-67
2021/01/03 00:36:42;;;;;;;;;;;3.70;99.90;;;;;;10406518;28;19984;-67
2021/01/03 00:41:50;;;;;;;;;;;3.80;99.90;;;;;;10405898;28;20441;-67
2021/01/03 00:47:06;;;;;;;;;;;3.80;99.90;;;;;;10419104;28;19986;-67
2021/01/03 00:52:08;;;;;;;;;;;3.80;99.90;;;;;;10405162;28;20018;-67
2021/01/03 00:57:09;;;;;;;;;;;3.80;99.90;;;;;;10406170;28;19960;-67
2021/01/03 01:02:10;;;;;;;;;;;3.80;99.90;;;;;;10404106;28;20352;-67
2021/01/03 01:07:12;;;;;;;;;;;3.80;99.90;;;;;;10405167;28;19983;-67
2021/01/03 01:12:13;;;;;;;;;;;3.80;99.90;;;;;;10405240;28;19983;-67
2021/01/03 01:17:14;;;;;;;;;;;3.90;99.90;;;;;;10404154;28;20027;-67
2021/01/03 01:22:15;;;;;;;;;;;3.90;99.90;;;;;;10420583;28;20286;-67
2021/01/03 01:27:17;;;;;;;;;;;3.90;99.90;;;;;;10405334;28;20376;-67
2021/01/03 01:32:18;;;;;;;;;;;3.80;99.90;;;;;;10404253;28;20024;-67
2021/01/03 01:37:19;;;;;;;;;;;3.90;99.90;;;;;;10404186;28;20389;-67
2021/01/03 01:42:21;;;;;;;;;;;3.90;99.90;;;;;;10404681;28;20019;-67
2021/01/03 01:47:24;;;;;;;;;;;4.00;99.90;;;;;;10404554;28;20402;-67
2021/01/03 01:52:30;;;;;;;;;;;4.00;99.90;;;;;;10404093;28;20429;-67
2021/01/03 01:57:38;;;;;;;;;;;4.00;99.90;;;;;;10404872;28;19929;-67
2021/01/03 02:02:51;;;;;;;;;;;4.00;99.90;;;;;;10403710;28;19932;-67
2021/01/03 02:07:52;;;;;;;;;;;4.00;99.90;;;;;;10405011;28;20020;-67
2021/01/03 02:13:02;;;;;;;;;;;4.00;99.90;;;;;;10404135;28;20016;-67
2021/01/03 02:18:05;;;;;;;;;;;4.00;99.90;;;;;;10403969;28;19964;-67
2021/01/03 02:23:07;;;;;;;;;;;4.10;99.90;;;;;;10405338;28;20019;-67
2021/01/03 02:28:15;;;;;;;;;;;4.20;99.90;;;;;;10404209;28;19925;-67
2021/01/03 02:33:19;;;;;;;;;;;4.20;99.90;;;;;;10403628;28;20003;-67
2021/01/03 02:38:23;;;;;;;;;;;4.10;99.90;;;;;;10403975;28;19964;-67
2021/01/03 02:43:24;;;;;;;;;;;3.90;99.90;;;;;;10402307;28;19979;-67
2021/01/03 02:48:25;;;;;;;;;;;3.90;99.90;;;;;;10404177;28;20412;-67
2021/01/03 02:53:27;;;;;;;;;;;3.80;99.90;;;;;;10402930;28;20028;-67
2021/01/03 02:58:28;;;;;;;;;;;3.80;99.90;;;;;;10403506;28;20024;-67
2021/01/03 03:03:29;;;;;;;;;;;3.80;99.90;;;;;;10407260;28;19929;-67
2021/01/03 03:08:30;;;;;;;;;;;3.80;99.90;;;;;;10410006;28;19999;-67
2021/01/03 03:13:32;;;;;;;;;;;3.90;99.90;;;;;;10414323;28;19972;-67
2021/01/03 03:18:33;;;;;;;;;;;3.90;99.90;;;;;;10417845;28;19925;-67
2021/01/03 03:23:34;;;;;;;;;;;3.90;99.90;;;;;;10417567;28;19941;-67
2021/01/03 03:28:35;;;;;;;;;;;3.90;99.90;;;;;;10416384;28;19976;-67
2021/01/03 03:33:37;;;;;;;;;;;3.90;99.90;;;;;;10417338;28;19929;-67
2021/01/03 03:38:39;;;;;;;;;;;3.90;99.90;;;;;;10416162;28;19956;-67
2021/01/03 03:43:41;;;;;;;;;;;3.90;99.90;;;;;;10416521;28;19925;-67
2021/01/03 03:48:43;;;;;;;;;;;3.90;99.90;;;;;;10416375;28;19932;-67
2021/01/03 03:53:44;;;;;;;;;;;3.90;99.90;;;;;;10431289;28;20011;-67
2021/01/03 03:58:46;;;;;;;;;;;3.90;99.90;;;;;;10416467;28;20012;-67
2021/01/03 04:03:47;;;;;;;;;;;3.80;99.90;;;;;;10412446;28;19929;-67
2021/01/03 04:08:48;;;;;;;;;;;3.80;99.90;;;;;;10410766;28;20012;-67
2021/01/03 04:13:50;;;;;;;;;;;3.90;99.90;;;;;;10408367;28;20012;-67
2021/01/03 04:18:51;;;;;;;;;;;3.90;99.90;;;;;;10408255;28;20024;-67
2021/01/03 04:23:52;;;;;;;;;;;3.90;99.90;;;;;;10408041;28;19929;-67
2021/01/03 04:28:54;;;;;;;;;;;3.80;99.90;;;;;;10407413;28;20011;-67
2021/01/03 04:33:55;;;;;;;;;;;3.80;99.90;;;;;;10407297;28;19968;-67
2021/01/03 04:38:56;;;;;;;;;;;3.90;99.90;;;;;;10407814;28;19983;-67
2021/01/03 04:44:00;;;;;;;;;;;3.90;99.90;;;;;;10407025;28;20340;-66
2021/01/03 04:49:03;;;;;;;;;;;3.90;99.90;;;;;;10405810;28;19972;-67
2021/01/03 04:54:04;;;;;;;;;;;3.90;99.90;;;;;;10406806;28;20239;-67
2021/01/03 04:59:16;;;;;;;;;;;3.90;99.90;;;;;;10406229;28;19980;-67
2021/01/03 05:04:36;;;;;;;;;;;3.90;99.90;;;;;;10429431;28;20445;-67
2021/01/03 05:09:37;;;;;;;;;;;4.00;99.90;;;;;;10406456;28;20351;-67
2021/01/03 05:14:41;;;;;;;;;;;4.00;99.90;;;;;;10405853;28;20266;-67
2021/01/03 05:19:43;;;;;;;;;;;4.00;99.90;;;;;;10405084;28;19972;-67
2021/01/03 05:24:44;;;;;;;;;;;4.10;99.90;;;;;;10405900;28;20011;-67
2021/01/03 05:29:46;;;;;;;;;;;4.20;99.90;;;;;;10405354;28;20483;-67
2021/01/03 05:34:47;;;;;;;;;;;4.20;99.90;;;;;;10420264;28;20412;-67
2021/01/03 05:39:49;;;;;;;;;;;4.20;99.90;;;;;;10404889;28;19925;-67
2021/01/03 05:45:21;;;;;;;;;;;4.20;99.90;;;;;;10405234;28;19968;-67
2021/01/03 05:50:22;;;;;;;;;;;4.30;99.90;;;;;;10364036;28;20001;-67
2021/01/03 05:55:25;;;;;;;;;;;4.20;99.90;;;;;;10404138;28;19972;-67
2021/01/03 06:00:27;;;;;;;;;;;4.10;99.90;;;;;;10404104;28;19929;-67
2021/01/03 06:05:28;;;;;;;;;;;4.20;99.90;;;;;;10404644;28;19952;-67
2021/01/03 06:10:35;;;;;;;;;;;4.20;99.90;;;;;;10404574;28;19972;-67
2021/01/03 06:15:41;;;;;;;;;;;4.20;99.90;;;;;;10402537;28;20010;-67
2021/01/03 06:20:42;;;;;;;;;;;4.20;99.90;;;;;;10404471;28;19972;-67
2021/01/03 06:26:03;;;;;;;;;;;4.10;99.90;;;;;;10404150;28;20009;-67
2021/01/03 06:31:04;;;;;;;;;;;4.20;99.90;;;;;;10403850;28;19925;-67
2021/01/03 06:36:09;;;;;;;;;;;4.20;99.90;;;;;;10404469;28;20048;-67
2021/01/03 06:41:34;;;;;;;;;;;4.20;99.90;;;;;;10404007;28;19925;-67
2021/01/03 06:46:48;;;;;;;;;;;4.30;99.90;;;;;;10402218;28;20030;-67
2021/01/03 06:52:09;;;;;;;;;;;4.30;99.90;;;;;;10411414;28;20458;-67
2021/01/03 06:57:16;;;;;;;;;;;4.30;99.90;;;;;;10411250;28;20027;-67
2021/01/03 07:02:19;;;;;;;;;;;4.40;99.90;;;;;;10411600;28;19975;-67
2021/01/03 07:07:25;;;;;;;;;;;4.30;99.90;;;;;;10410510;28;20359;-67
2021/01/03 07:12:43;;;;;;;;;;;4.30;99.90;;;;;;10407662;28;19969;-67
2021/01/03 07:18:04;;;;;;;;;;;4.40;99.90;;;;;;10372292;28;20019;-67
2021/01/03 07:23:18;;;;;;;;;;;4.50;99.90;;;;;;10409679;28;19965;-67
2021/01/03 07:28:23;;;;;;;;;;;4.60;99.90;;;;;;10410105;28;19960;-67
2021/01/03 07:33:46;;;;;;;;;;;4.50;99.90;;;;;;10409767;28;20408;-67
2021/01/03 07:39:08;;;;;;;;;;;4.60;99.90;;;;;;10380292;28;20818;-67
2021/01/03 07:44:12;;;;;;;;;;;4.60;99.90;;;;;;10410138;28;19925;-67
2021/01/03 07:49:32;;;;;;;;;;;4.60;99.90;;;;;;10408999;28;20027;-67
2021/01/03 07:54:33;;;;;;;;;;;4.50;99.90;;;;;;10409442;28;19976;-67
2021/01/03 07:59:35;;;;;;;;;;;4.60;99.90;;;;;;10408457;28;19956;-67
2021/01/03 08:04:36;;;;;;;;;;;4.50;99.90;;;;;;10408476;28;19929;-67
2021/01/03 08:09:38;;;;;;;;;;;4.50;99.90;;;;;;10409025;28;20016;-67
2021/01/03 08:14:42;;;;;;;;;;;4.50;99.90;;;;;;10408051;28;19933;-67
2021/01/03 08:19:44;;;;;;;;;;;4.50;99.90;;;;;;10408226;28;19932;-67
2021/01/03 08:24:51;;;;;;;;;;;4.50;99.90;;;;;;10407418;28;20025;-67
2021/01/03 08:29:59;;;;;;;;;;;4.40;99.90;;;;;;10407503;28;20391;-67
2021/01/03 08:35:04;;;;;;;;;;;4.50;99.90;;;;;;10407628;28;20423;-67
2021/01/03 08:40:11;;;;;;;;;;;4.50;99.90;;;;;;10422600;28;20028;-67
2021/01/03 08:45:16;;;;;;;;;;;4.50;99.90;;;;;;10407193;28;19925;-67
2021/01/03 08:50:22;;;;;;;;;;;4.50;99.90;;;;;;10407170;28;19977;-67
2021/01/03 08:55:24;;;;;;;;;;;4.50;99.90;;;;;;10393138;28;19925;-67
2021/01/03 09:00:34;;;;;;;;;;;4.70;99.90;;;;;;10405876;28;19925;-67
2021/01/03 09:05:36;;;;;;;;;;;4.60;99.90;;;;;;10406783;28;19967;-67
2021/01/03 09:10:40;;;;;;;;;;;4.70;99.90;;;;;;10404792;28;19933;-67
2021/01/03 09:15:44;;;;;;;;;;;4.80;99.90;;;;;;10406556;28;20007;-67
2021/01/03 09:20:46;;;;;;;;;;;4.80;99.90;;;;;;10405655;28;20436;-67
2021/01/03 09:25:51;;;;;;;;;;;4.80;99.90;;;;;;10405326;28;20023;-67
2021/01/03 09:31:07;;;;;;;;;;;4.90;99.90;;;;;;10392557;28;20367;-67
2021/01/03 09:36:40;;;;;;;;;;;4.90;99.90;;;;;;10403785;28;20344;-67
2021/01/03 09:41:50;;;;;;;;;;;4.90;99.90;;;;;;10402121;28;20024;-67
2021/01/03 09:46:57;;;;;;;;;;;5.10;99.90;;;;;;10403202;28;20020;-67
2021/01/03 09:52:17;;;;;;;;;;;5.30;99.90;;;;;;10402119;28;19925;-69
2021/01/03 09:57:28;;;;;;;;;;;5.30;99.90;;;;;;10404048;28;19971;-69
2021/01/03 10:02:29;;;;;;;;;;;5.40;99.90;;;;;;10400233;28;20043;-69
2021/01/03 10:07:31;;;;;;;;;;;5.50;99.90;;;;;;10402643;28;20019;-69
2021/01/03 10:12:37;;;;;;;;;;;5.50;99.90;;;;;;10403094;28;19925;-69
2021/01/03 10:17:41;;;;;;;;;;;5.60;99.90;;;;;;10403190;28;19994;-69
2021/01/03 10:22:44;;;;;;;;;;;5.50;99.90;;;;;;10406786;28;20051;-69
2021/01/03 10:28:04;;;;;;;;;;;5.60;99.90;;;;;;10409868;28;19972;-70
2021/01/03 10:33:05;;;;;;;;;;;5.60;99.90;;;;;;10412079;28;20026;-69
2021/01/03 10:38:07;;;;;;;;;;;5.50;99.90;;;;;;10408601;28;20021;-69
2021/01/03 10:43:08;;;;;;;;;;;5.50;99.90;;;;;;10412637;28;20025;-69
2021/01/03 10:48:12;;;;;;;;;;;5.50;99.90;;;;;;10411997;28;19989;-70
2021/01/03 10:53:14;;;;;;;;;;;5.50;99.90;;;;;;10411634;28;20332;-71
2021/01/03 10:58:15;;;;;;;;;;;5.50;99.90;;;;;;10442165;28;19983;-70
2021/01/03 11:03:17;;;;;;;;;;;5.40;99.90;;;;;;10409611;28;20448;-69
2021/01/03 11:08:18;;;;;;;;;;;5.40;99.90;;;;;;10410510;28;19944;-70
2021/01/03 11:13:19;;;;;;;;;;;5.50;99.90;;;;;;10426508;28;20297;-70
2021/01/03 11:18:20;;;;;;;;;;;5.60;99.90;;;;;;10411377;28;20036;-70
2021/01/03 11:23:22;;;;;;;;;;;5.60;99.90;;;;;;10410340;28;20462;-70
2021/01/03 11:28:25;;;;;;;;;;;5.50;99.90;;;;;;10410647;28;19925;-70
2021/01/03 11:33:26;;;;;;;;;;;5.50;99.90;;;;;;10408779;28;20028;-70
2021/01/03 11:38:27;;;;;;;;;;;5.40;99.90;;;;;;10410158;28;20357;-70
2021/01/03 11:43:29;;;;;;;;;;;5.30;99.90;;;;;;10410179;28;20442;-70
2021/01/03 11:48:30;;;;;;;;;;;5.10;99.90;;;;;;10409413;28;20096;-69
2021/01/03 11:53:31;;;;;;;;;;;5.10;99.90;;;;;;10425205;28;19932;-69
2021/01/03 11:58:33;;;;;;;;;;;5.10;99.90;;;;;;10409377;28;19964;-70
2021/01/03 12:03:35;;;;;;;;;;;5.20;99.90;;;;;;10409834;28;19932;-69
2021/01/03 12:08:36;;;;;;;;;;;5.20;99.90;;;;;;10409677;28;19980;-69
2021/01/03 12:13:38;;;;;;;;;;;5.00;99.90;;;;;;10409371;28;20822;-69
2021/01/03 12:18:40;;;;;;;;;;;5.10;99.90;;;;;;10408992;28;19929;-69
2021/01/03 12:23:41;;;;;;;;;;;5.20;99.90;;;;;;10408794;28;19931;-69
2021/01/03 12:28:43;;;;;;;;;;;5.10;99.90;;;;;;10422926;28;19968;-70
2021/01/03 12:33:44;;;;;;;;;;;4.90;99.90;;;;;;10408916;28;19968;-69
2021/01/03 12:38:45;;;;;;;;;;;5.00;99.90;;;;;;10423128;28;19931;-69
2021/01/03 12:43:47;;;;;;;;;;;5.00;99.90;;;;;;10407706;28;19968;-70
2021/01/03 12:48:48;;;;;;;;;;;5.20;99.90;;;;;;10407703;28;20370;-70
2021/01/03 12:53:50;;;;;;;;;;;5.10;99.90;;;;;;10407207;28;19948;-69
2021/01/03 12:58:58;;;;;;;;;;;5.20;99.90;;;;;;10406725;28;19961;-70
2021/01/03 13:04:00;;;;;;;;;;;5.20;99.90;;;;;;10407656;28;19932;-69
2021/01/03 13:09:01;;;;;;;;;;;5.20;99.90;;;;;;10407289;28;19960;-69
2021/01/03 13:14:04;;;;;;;;;;;5.30;99.90;;;;;;10406311;28;20380;-70
2021/01/03 13:19:06;;;;;;;;;;;5.20;99.90;;;;;;10406480;28;19979;-70
2021/01/03 13:24:08;;;;;;;;;;;5.00;99.90;;;;;;10406717;28;19937;-69
2021/01/03 13:29:09;;;;;;;;;;;5.00;99.90;;;;;;10420541;28;19964;-70
2021/01/03 13:34:10;;;;;;;;;;;5.00;99.90;;;;;;10406082;28;20359;-70
2021/01/03 13:39:12;;;;;;;;;;;5.00;99.90;;;;;;10406139;28;20019;-69
2021/01/03 13:44:13;;;;;;;;;;;5.10;99.90;;;;;;10420630;28;20008;-70
2021/01/03 13:49:15;;;;;;;;;;;5.10;99.90;;;;;;10405455;28;20004;-70
2021/01/03 13:54:16;;;;;;;;;;;5.10;99.90;;;;;;10406109;28;19964;-69
2021/01/03 13:59:18;;;;;;;;;;;5.10;99.90;;;;;;10403554;28;20024;-70
2021/01/03 14:04:19;;;;;;;;;;;5.30;99.90;;;;;;10405279;28;20019;-69
2021/01/03 14:09:20;;;;;;;;;;;5.20;99.90;;;;;;10404626;28;19979;-70
2021/01/03 14:14:22;;;;;;;;;;;5.10;99.90;;;;;;10405273;28;20012;-69
2021/01/03 14:19:24;;;;;;;;;;;5.10;99.90;;;;;;10405489;28;19988;-69
2021/01/03 14:24:25;;;;;;;;;;;5.10;99.90;;;;;;10419498;28;20056;-70
2021/01/03 14:29:27;;;;;;;;;;;5.10;99.90;;;;;;10404814;28;19925;-70
2021/01/03 14:34:40;;;;;;;;;;;5.00;99.90;;;;;;10404659;28;19925;-70
2021/01/03 14:39:42;;;;;;;;;;;5.10;99.90;;;;;;10404194;28;20036;-70
2021/01/03 14:44:50;;;;;;;;;;;5.20;99.90;;;;;;10404461;28;20321;-70
2021/01/03 14:50:04;;;;;;;;;;;5.10;99.90;;;;;;10404202;28;20080;-70
2021/01/03 14:55:18;;;;;;;;;;;5.00;99.90;;;;;;10404144;28;19957;-70
2021/01/03 15:00:20;;;;;;;;;;;5.00;99.90;;;;;;10404061;28;20351;-70
2021/01/03 15:05:32;;;;;;;;;;;5.00;99.90;;;;;;10404472;28;19932;-69
2021/01/03 15:10:34;;;;;;;;;;;4.90;99.90;;;;;;10408899;28;20369;-70
2021/01/03 15:15:38;;;;;;;;;;;4.90;99.90;;;;;;10411590;28;19983;-70
2021/01/03 15:20:41;;;;;;;;;;;5.00;99.90;;;;;;10411524;28;20340;-70
2021/01/03 15:25:44;;;;;;;;;;;4.90;99.90;;;;;;10409335;28;20331;-70
2021/01/03 15:30:52;;;;;;;;;;;5.00;99.90;;;;;;10410688;28;20440;-70
2021/01/03 15:35:55;;;;;;;;;;;5.00;99.90;;;;;;10410491;28;19956;-70
2021/01/03 15:40:58;;;;;;;;;;;4.90;99.90;;;;;;10409927;28;20013;-69
2021/01/03 15:46:04;;;;;;;;;;;4.90;99.90;;;;;;10410019;28;20075;-69
2021/01/03 15:51:05;;;;;;;;;;;4.90;99.90;;;;;;10409619;28;19977;-69
2021/01/03 15:56:07;;;;;;;;;;;4.90;99.90;;;;;;10410287;28;20059;-69
2021/01/03 16:01:08;;;;;;;;;;;4.90;99.90;;;;;;10409481;28;20059;-69
2021/01/03 16:06:09;;;;;;;;;;;4.90;99.90;;;;;;10407966;28;19976;-70
2021/01/03 16:11:11;;;;;;;;;;;4.80;99.90;;;;;;10409309;28;20472;-70
2021/01/03 16:16:12;;;;;;;;;;;4.90;99.90;;;;;;10408920;28;20361;-70
2021/01/03 16:21:14;;;;;;;;;;;4.90;99.90;;;;;;10408149;28;19968;-70
2021/01/03 16:26:38;;;;;;;;;;;4.80;99.90;;;;;;10408736;28;19995;-70
2021/01/03 16:31:47;;;;;;;;;;;4.80;99.90;;;;;;10399659;28;19925;-70
2021/01/03 16:36:54;;;;;;;;;;;4.80;99.90;;;;;;10408049;28;20035;-70
2021/01/03 16:42:01;;;;;;;;;;;4.80;99.90;;;;;;10408522;28;19929;-70
2021/01/03 16:47:06;;;;;;;;;;;4.90;99.90;;;;;;10406635;28;20019;-70
2021/01/03 16:52:26;;;;;;;;;;;4.90;99.90;;;;;;10407178;28;20425;-70
2021/01/03 16:57:42;;;;;;;;;;;4.80;99.90;;;;;;10407589;28;19979;-69
2021/01/03 17:02:47;;;;;;;;;;;4.80;99.90;;;;;;10407567;28;19929;-70
2021/01/03 17:07:53;;;;;;;;;;;4.80;99.90;;;;;;10406614;28;19926;-70
2021/01/03 17:13:05;;;;;;;;;;;4.90;99.90;;;;;;10405755;28;19965;-69
2021/01/03 17:18:13;;;;;;;;;;;4.80;99.90;;;;;;10406992;28;19975;-69
2021/01/03 17:23:23;;;;;;;;;;;4.80;99.90;;;;;;10406792;28;20447;-70
2021/01/03 17:28:24;;;;;;;;;;;4.90;99.90;;;;;;10406341;28;19951;-70
2021/01/03 17:33:29;;;;;;;;;;;4.80;99.90;;;;;;10406803;28;20020;-70
2021/01/03 17:38:39;;;;;;;;;;;4.90;99.90;;;;;;10403278;28;20375;-70
2021/01/03 17:43:44;;;;;;;;;;;4.90;99.90;;;;;;10403854;28;20020;-70
2021/01/03 17:48:49;;;;;;;;;;;4.90;99.90;;;;;;10404169;28;19979;-70
2021/01/03 17:53:52;;;;;;;;;;;5.00;99.90;;;;;;10404354;28;19925;-70
2021/01/03 17:58:54;;;;;;;;;;;4.90;99.90;;;;;;10402856;28;20484;-70
2021/01/03 18:03:56;;;;;;;;;;;4.80;99.90;;;;;;10425026;28;20424;-70
2021/01/03 18:08:57;;;;;;;;;;;4.80;99.90;;;;;;10451091;28;20300;-70
2021/01/03 18:14:00;;;;;;;;;;;4.80;99.90;;;;;;10403946;28;20389;-70
2021/01/03 18:19:02;;;;;;;;;;;4.90;99.90;;;;;;10403785;28;19925;-69
2021/01/03 18:24:03;;;;;;;;;;;4.90;99.90;;;;;;10404483;28;20008;-66
2021/01/03 18:29:05;;;;;;;;;;;4.80;99.90;;;;;;10404839;28;20028;-66
2021/01/03 18:34:07;;;;;;;;;;;4.80;99.90;;;;;;10402777;28;19975;-66
2021/01/03 18:39:09;;;;;;;;;;;4.90;99.90;;;;;;10404198;28;19933;-66
2021/01/03 18:44:10;;;;;;;;;;;4.90;99.90;;;;;;10409365;28;20336;-66
2021/01/03 18:49:12;;;;;;;;;;;4.80;99.90;;;;;;10411821;28;20447;-66
2021/01/03 18:54:14;;;;;;;;;;;4.90;99.90;;;;;;10411932;28;20377;-66
2021/01/03 18:59:17;;;;;;;;;;;4.90;99.90;;;;;;10412494;28;19960;-66
2021/01/03 19:04:22;;;;;;;;;;;4.90;99.90;;;;;;10411650;28;19987;-66
2021/01/03 19:09:32;;;;;;;;;;;4.90;99.90;;;;;;10411463;28;19933;-66
2021/01/03 19:14:34;;;;;;;;;;;4.90;99.90;;;;;;10411444;28;19929;-66
2021/01/03 19:19:36;;;;;;;;;;;5.00;99.90;;;;;;10410756;28;19932;-66
2021/01/03 19:24:37;;;;;;;;;;;5.00;99.90;;;;;;10411582;28;19976;-66
2021/01/03 19:29:39;;;;;;;;;;;4.90;99.90;;;;;;10410525;28;20321;-66
2021/01/03 19:34:41;;;;;;;;;;;4.70;99.90;;;;;;10410425;28;20273;-66
2021/01/03 19:39:43;;;;;;;;;;;4.50;99.90;;;;;;10410310;28;19939;-66
2021/01/03 19:44:44;;;;;;;;;;;4.50;99.90;;;;;;10410401;28;20020;-66
2021/01/03 19:49:46;;;;;;;;;;;4.50;99.90;;;;;;10409391;28;20274;-66
2021/01/03 19:54:47;;;;;;;;;;;4.60;99.90;;;;;;10409129;28;19969;-66
2021/01/03 19:59:50;;;;;;;;;;;4.70;99.90;;;;;;10410313;28;19980;-66
2021/01/03 20:04:51;;;;;;;;;;;4.70;99.90;;;;;;10409132;28;20431;-66
2021/01/03 20:09:53;;;;;;;;;;;4.70;99.90;;;;;;10409434;28;20381;-66
2021/01/03 20:14:54;;;;;;;;;;;4.60;99.90;;;;;;10409286;28;19925;-66
2021/01/03 20:19:56;;;;;;;;;;;4.60;99.90;;;;;;10408449;28;20368;-65
2021/01/03 20:24:57;;;;;;;;;;;4.60;99.90;;;;;;10407112;28;20466;-66
2021/01/03 20:29:58;;;;;;;;;;;4.50;99.90;;;;;;10408579;28;19968;-65
2021/01/03 20:34:59;;;;;;;;;;;4.50;99.90;;;;;;10407982;28;20453;-66
2021/01/03 20:40:03;;;;;;;;;;;4.50;99.90;;;;;;10407708;28;19956;-66
2021/01/03 20:45:05;;;;;;;;;;;4.50;99.90;;;;;;10407350;28;20358;-66
2021/01/03 20:50:09;;;;;;;;;;;4.50;99.90;;;;;;10407618;28;19987;-66
2021/01/03 20:55:11;;;;;;;;;;;4.60;99.90;;;;;;10407620;28;20007;-66
2021/01/03 21:00:13;;;;;;;;;;;4.60;99.90;;;;;;10407210;28;20011;-66
2021/01/03 21:05:16;;;;;;;;;;;4.60;99.90;;;;;;10406070;28;19964;-66
2021/01/03 21:10:20;;;;;;;;;;;4.50;99.90;;;;;;10407724;28;19983;-66
2021/01/03 21:15:22;;;;;;;;;;;4.50;99.90;;;;;;10407236;28;20013;-66
2021/01/03 21:20:23;;;;;;;;;;;4.50;99.90;;;;;;10406764;28;19956;-66
2021/01/03 21:25:26;;;;;;;;;;;4.50;99.90;;;;;;10406484;28;20411;-66
2021/01/03 21:30:28;;;;;;;;;;;4.50;99.90;;;;;;10405917;28;19933;-66
2021/01/03 21:35:33;;;;;;;;;;;4.50;99.90;;;;;;10406076;28;19932;-66
2021/01/03 21:40:42;;;;;;;;;;;4.50;99.90;;;;;;10405586;28;20015;-66
2021/01/03 21:45:45;;;;;;;;;;;4.40;99.90;;;;;;10404665;28;19964;-66
2021/01/03 21:50:54;;;;;;;;;;;4.40;99.90;;;;;;10405454;28;20004;-66
2021/01/03 21:56:14;;;;;;;;;;;4.30;99.90;;;;;;10405453;28;20019;-66
2021/01/03 22:01:30;;;;;;;;;;;4.30;99.90;;;;;;10405702;28;20011;-66
2021/01/03 22:06:38;;;;;;;;;;;4.30;99.90;;;;;;10405815;28;20011;-66
2021/01/03 22:11:39;;;;;;;;;;;4.30;99.90;;;;;;10405233;28;19975;-66
2021/01/03 22:16:49;;;;;;;;;;;4.30;99.90;;;;;;10405140;28;20441;-66
2021/01/03 22:21:54;;;;;;;;;;;4.30;99.90;;;;;;10411429;28;20372;-67
2021/01/03 22:27:22;;;;;;;;;;;4.40;99.90;;;;;;10412132;28;20159;-65
2021/01/03 22:32:24;;;;;;;;;;;4.30;99.90;;;;;;10395624;28;20006;-65
2021/01/03 22:37:40;;;;;;;;;;;4.30;99.90;;;;;;10412607;28;19925;-65
2021/01/03 22:42:50;;;;;;;;;;;4.30;99.90;;;;;;10411402;28;20024;-66
2021/01/03 22:48:07;;;;;;;;;;;4.30;99.90;;;;;;10410866;28;19963;-65
2021/01/03 22:53:40;;;;;;;;;;;4.30;99.90;;;;;;10410243;28;20468;-65
2021/01/03 22:59:05;;;;;;;;;;;4.30;99.90;;;;;;10365406;28;20012;-66
2021/01/03 23:04:20;;;;;;;;;;;4.20;99.90;;;;;;10407997;28;20008;-65
2021/01/03 23:09:25;;;;;;;;;;;4.10;99.90;;;;;;10409340;28;20346;-66
2021/01/03 23:14:29;;;;;;;;;;;3.90;99.90;;;;;;10390518;28;20012;-65
2021/01/03 23:19:35;;;;;;;;;;;3.80;99.90;;;;;;10409091;28;20000;-66
2021/01/03 23:24:38;;;;;;;;;;;3.90;99.90;;;;;;10408637;28;19969;-65
2021/01/03 23:29:41;;;;;;;;;;;3.90;99.90;;;;;;10406817;28;20008;-65
2021/01/03 23:34:50;;;;;;;;;;;4.00;99.90;;;;;;10408085;28;19995;-65
2021/01/03 23:39:58;;;;;;;;;;;3.90;99.90;;;;;;10408359;28;19929;-65
2021/01/03 23:45:12;;;;;;;;;;;3.80;99.90;;;;;;10383184;28;20403;-65
2021/01/03 23:50:16;;;;;;;;;;;3.90;99.90;;;;;;10407529;28;20071;-65
2021/01/03 23:55:30;;;;;;;;;;;3.90;99.90;;;;;;10407850;28;19936;-65
